sensor_id;sensor_type;location;lat;lon;timestamp;P1;durP1;ratioP1;P2;durP2;ratioP2
35304;SDS011;26433;48.034;-1.764;2023-07-31T00:03:08;5.25;;;1.67;;
35304;SDS011;26433;48.034;-1.764;2023-07-31T00:08:12;11.75;;;1.55;;
35304;SDS011;26433;48.034;-1.764;2023-07-31T00:13:17;9.97;;;2.37;;
35304;SDS011;26433;48.034;-1.764;2023-07-31T00:18:21;6.60;;;1.80;;
35304;SDS011;26433;48.034;-1.764;2023-07-31T00:23:24;3.77;;;1.47;;
35304;SDS011;26433;48.034;-1.764;2023-07-31T00:28:29;6.07;;;1.50;;
35304;SDS011;26433;48.034;-1.764;2023-07-31T00:33:34;10.35;;;2.53;;
35304;SDS011;26433;48.034;-1.764;2023-07-31T00:38:38;7.43;;;2.20;;
35304;SDS011;26433;48.034;-1.764;2023-07-31T00:43:43;9.30;;;1.90;;
35304;SDS011;26433;48.034;-1.764;2023-07-31T00:48:47;4.60;;;1.70;;
35304;SDS011;26433;48.034;-1.764;2023-07-31T00:53:52;6.75;;;1.55;;
35304;SDS011;26433;48.034;-1.764;2023-07-31T00:58:59;4.45;;;1.73;;
35304;SDS011;26433;48.034;-1.764;2023-07-31T01:04:02;6.37;;;1.73;;
35304;SDS011;26433;48.034;-1.764;2023-07-31T01:09:07;4.25;;;1.55;;
35304;SDS011;26433;48.034;-1.764;2023-07-31T01:14:24;8.85;;;2.05;;
35304;SDS011;26433;48.034;-1.764;2023-07-31T01:19:28;3.58;;;1.45;;
35304;SDS011;26433;48.034;-1.764;2023-07-31T01:24:35;10.02;;;1.75;;
35304;SDS011;26433;48.034;-1.764;2023-07-31T01:29:47;2.92;;;1.50;;
35304;SDS011;26433;48.034;-1.764;2023-07-31T01:34:56;5.40;;;2.00;;
35304;SDS011;26433;48.034;-1.764;2023-07-31T01:40:03;5.10;;;1.40;;
35304;SDS011;26433;48.034;-1.764;2023-07-31T01:45:09;3.58;;;1.33;;
35304;SDS011;26433;48.034;-1.764;2023-07-31T01:50:13;4.85;;;1.85;;
35304;SDS011;26433;48.034;-1.764;2023-07-31T01:55:17;3.40;;;1.40;;
35304;SDS011;26433;48.034;-1.764;2023-07-31T02:00:22;8.83;;;2.10;;
35304;SDS011;26433;48.034;-1.764;2023-07-31T02:05:25;2.30;;;1.55;;
35304;SDS011;26433;48.034;-1.764;2023-07-31T02:10:29;5.17;;;1.87;;
35304;SDS011;26433;48.034;-1.764;2023-07-31T02:15:35;8.95;;;2.95;;
35304;SDS011;26433;48.034;-1.764;2023-07-31T02:20:39;2.75;;;1.55;;
35304;SDS011;26433;48.034;-1.764;2023-07-31T02:25:42;5.23;;;1.77;;
35304;SDS011;26433;48.034;-1.764;2023-07-31T02:30:47;6.80;;;2.08;;
35304;SDS011;26433;48.034;-1.764;2023-07-31T02:35:53;6.15;;;2.22;;
35304;SDS011;26433;48.034;-1.764;2023-07-31T02:40:57;4.87;;;1.85;;
35304;SDS011;26433;48.034;-1.764;2023-07-31T02:46:03;4.97;;;1.55;;
35304;SDS011;26433;48.034;-1.764;2023-07-31T02:51:06;5.72;;;1.75;;
35304;SDS011;26433;48.034;-1.764;2023-07-31T02:56:10;7.28;;;2.47;;
35304;SDS011;26433;48.034;-1.764;2023-07-31T03:01:15;3.43;;;1.20;;
35304;SDS011;26433;48.034;-1.764;2023-07-31T03:06:19;6.87;;;2.10;;
35304;SDS011;26433;48.034;-1.764;2023-07-31T03:11:22;3.75;;;1.58;;
35304;SDS011;26433;48.034;-1.764;2023-07-31T03:16:27;3.90;;;1.63;;
35304;SDS011;26433;48.034;-1.764;2023-07-31T03:21:31;5.70;;;1.62;;
35304;SDS011;26433;48.034;-1.764;2023-07-31T03:26:35;6.60;;;1.67;;
35304;SDS011;26433;48.034;-1.764;2023-07-31T03:36:44;4.75;;;1.50;;
35304;SDS011;26433;48.034;-1.764;2023-07-31T03:41:48;6.10;;;1.40;;
35304;SDS011;26433;48.034;-1.764;2023-07-31T03:46:53;2.23;;;1.03;;
35304;SDS011;26433;48.034;-1.764;2023-07-31T03:51:57;3.67;;;1.30;;
35304;SDS011;26433;48.034;-1.764;2023-07-31T03:57:01;7.57;;;1.60;;
35304;SDS011;26433;48.034;-1.764;2023-07-31T04:02:06;5.50;;;1.10;;
35304;SDS011;26433;48.034;-1.764;2023-07-31T04:07:09;4.18;;;1.55;;
35304;SDS011;26433;48.034;-1.764;2023-07-31T04:12:13;6.70;;;1.17;;
35304;SDS011;26433;48.034;-1.764;2023-07-31T04:17:18;2.67;;;1.40;;
35304;SDS011;26433;48.034;-1.764;2023-07-31T04:22:22;7.40;;;2.08;;
35304;SDS011;26433;48.034;-1.764;2023-07-31T04:27:25;6.93;;;1.60;;
35304;SDS011;26433;48.034;-1.764;2023-07-31T04:32:30;5.07;;;1.60;;
35304;SDS011;26433;48.034;-1.764;2023-07-31T04:37:34;4.85;;;1.98;;
35304;SDS011;26433;48.034;-1.764;2023-07-31T04:42:38;5.27;;;1.37;;
35304;SDS011;26433;48.034;-1.764;2023-07-31T04:47:43;2.73;;;1.50;;
35304;SDS011;26433;48.034;-1.764;2023-07-31T04:52:47;3.08;;;1.40;;
35304;SDS011;26433;48.034;-1.764;2023-07-31T04:57:50;4.13;;;1.50;;
35304;SDS011;26433;48.034;-1.764;2023-07-31T05:02:56;3.92;;;1.60;;
35304;SDS011;26433;48.034;-1.764;2023-07-31T05:08:00;2.58;;;1.37;;
35304;SDS011;26433;48.034;-1.764;2023-07-31T05:13:03;5.27;;;1.53;;
35304;SDS011;26433;48.034;-1.764;2023-07-31T05:18:08;5.03;;;1.37;;
35304;SDS011;26433;48.034;-1.764;2023-07-31T05:23:12;4.65;;;1.77;;
35304;SDS011;26433;48.034;-1.764;2023-07-31T05:28:16;2.50;;;1.42;;
35304;SDS011;26433;48.034;-1.764;2023-07-31T05:33:21;4.70;;;1.20;;
35304;SDS011;26433;48.034;-1.764;2023-07-31T05:38:25;6.57;;;1.20;;
35304;SDS011;26433;48.034;-1.764;2023-07-31T05:43:29;3.55;;;1.15;;
35304;SDS011;26433;48.034;-1.764;2023-07-31T05:48:34;2.50;;;1.35;;
35304;SDS011;26433;48.034;-1.764;2023-07-31T05:53:38;7.32;;;1.40;;
35304;SDS011;26433;48.034;-1.764;2023-07-31T06:03:47;3.12;;;1.10;;
35304;SDS011;26433;48.034;-1.764;2023-07-31T06:08:51;4.55;;;1.52;;
35304;SDS011;26433;48.034;-1.764;2023-07-31T06:13:55;2.57;;;1.53;;
35304;SDS011;26433;48.034;-1.764;2023-07-31T06:19:00;2.90;;;1.20;;
35304;SDS011;26433;48.034;-1.764;2023-07-31T06:24:04;3.00;;;1.85;;
35304;SDS011;26433;48.034;-1.764;2023-07-31T06:29:08;0.90;;;0.70;;
35304;SDS011;26433;48.034;-1.764;2023-07-31T06:34:13;1.37;;;0.90;;
35304;SDS011;26433;48.034;-1.764;2023-07-31T06:39:17;2.50;;;0.85;;
35304;SDS011;26433;48.034;-1.764;2023-07-31T06:44:21;2.55;;;1.23;;
35304;SDS011;26433;48.034;-1.764;2023-07-31T06:49:26;3.40;;;0.82;;
35304;SDS011;26433;48.034;-1.764;2023-07-31T06:54:30;3.62;;;1.27;;
35304;SDS011;26433;48.034;-1.764;2023-07-31T06:59:33;3.37;;;1.20;;
35304;SDS011;26433;48.034;-1.764;2023-07-31T07:04:39;3.50;;;1.25;;
35304;SDS011;26433;48.034;-1.764;2023-07-31T07:09:43;3.53;;;1.35;;
35304;SDS011;26433;48.034;-1.764;2023-07-31T07:14:47;3.90;;;0.90;;
35304;SDS011;26433;48.034;-1.764;2023-07-31T07:19:52;5.60;;;1.27;;
35304;SDS011;26433;48.034;-1.764;2023-07-31T07:24:56;3.30;;;1.10;;
35304;SDS011;26433;48.034;-1.764;2023-07-31T07:30:00;6.60;;;1.60;;
35304;SDS011;26433;48.034;-1.764;2023-07-31T07:35:06;3.33;;;0.90;;
35304;SDS011;26433;48.034;-1.764;2023-07-31T07:40:10;3.58;;;1.27;;
35304;SDS011;26433;48.034;-1.764;2023-07-31T07:45:14;1.77;;;0.90;;
35304;SDS011;26433;48.034;-1.764;2023-07-31T07:50:19;2.37;;;1.12;;
35304;SDS011;26433;48.034;-1.764;2023-07-31T07:55:23;2.22;;;1.00;;
35304;SDS011;26433;48.034;-1.764;2023-07-31T08:00:27;2.00;;;0.80;;
35304;SDS011;26433;48.034;-1.764;2023-07-31T08:05:33;2.70;;;1.00;;
35304;SDS011;26433;48.034;-1.764;2023-07-31T08:10:36;2.53;;;0.90;;
35304;SDS011;26433;48.034;-1.764;2023-07-31T08:15:41;1.65;;;1.20;;
35304;SDS011;26433;48.034;-1.764;2023-07-31T08:20:46;4.37;;;1.58;;
35304;SDS011;26433;48.034;-1.764;2023-07-31T08:25:50;1.00;;;0.77;;
35304;SDS011;26433;48.034;-1.764;2023-07-31T08:30:54;1.48;;;1.15;;
35304;SDS011;26433;48.034;-1.764;2023-07-31T08:35:59;2.90;;;0.82;;
35304;SDS011;26433;48.034;-1.764;2023-07-31T08:41:03;2.25;;;0.70;;
35304;SDS011;26433;48.034;-1.764;2023-07-31T08:46:07;2.00;;;0.68;;
35304;SDS011;26433;48.034;-1.764;2023-07-31T08:51:13;2.58;;;0.62;;
35304;SDS011;26433;48.034;-1.764;2023-07-31T08:56:17;1.98;;;0.60;;
35304;SDS011;26433;48.034;-1.764;2023-07-31T09:01:21;1.52;;;0.70;;
35304;SDS011;26433;48.034;-1.764;2023-07-31T09:06:28;1.30;;;0.77;;
35304;SDS011;26433;48.034;-1.764;2023-07-31T09:11:34;3.55;;;1.00;;
35304;SDS011;26433;48.034;-1.764;2023-07-31T09:16:51;0.77;;;0.60;;
35304;SDS011;26433;48.034;-1.764;2023-07-31T09:21:57;2.00;;;0.57;;
35304;SDS011;26433;48.034;-1.764;2023-07-31T09:27:01;1.52;;;0.50;;
35304;SDS011;26433;48.034;-1.764;2023-07-31T09:32:05;1.15;;;0.68;;
35304;SDS011;26433;48.034;-1.764;2023-07-31T09:37:21;1.58;;;0.80;;
35304;SDS011;26433;48.034;-1.764;2023-07-31T09:42:25;1.23;;;0.75;;
35304;SDS011;26433;48.034;-1.764;2023-07-31T09:47:30;1.95;;;0.80;;
35304;SDS011;26433;48.034;-1.764;2023-07-31T09:52:36;3.72;;;1.23;;
35304;SDS011;26433;48.034;-1.764;2023-07-31T09:57:42;4.78;;;2.12;;
35304;SDS011;26433;48.034;-1.764;2023-07-31T10:02:48;2.15;;;1.25;;
35304;SDS011;26433;48.034;-1.764;2023-07-31T10:07:55;1.58;;;1.00;;
35304;SDS011;26433;48.034;-1.764;2023-07-31T10:13:00;1.23;;;1.08;;
35304;SDS011;26433;48.034;-1.764;2023-07-31T10:18:05;5.00;;;1.40;;
35304;SDS011;26433;48.034;-1.764;2023-07-31T10:23:10;3.03;;;1.00;;
35304;SDS011;26433;48.034;-1.764;2023-07-31T10:28:15;9.40;;;1.62;;
35304;SDS011;26433;48.034;-1.764;2023-07-31T10:33:18;6.70;;;1.60;;
35304;SDS011;26433;48.034;-1.764;2023-07-31T10:38:24;5.60;;;1.60;;
35304;SDS011;26433;48.034;-1.764;2023-07-31T10:43:27;1.98;;;1.12;;
35304;SDS011;26433;48.034;-1.764;2023-07-31T10:48:33;6.70;;;1.27;;
35304;SDS011;26433;48.034;-1.764;2023-07-31T10:53:39;4.18;;;1.00;;
35304;SDS011;26433;48.034;-1.764;2023-07-31T10:58:43;1.85;;;1.10;;
35304;SDS011;26433;48.034;-1.764;2023-07-31T11:03:49;6.00;;;1.10;;
35304;SDS011;26433;48.034;-1.764;2023-07-31T11:08:56;2.00;;;0.90;;
35304;SDS011;26433;48.034;-1.764;2023-07-31T11:13:59;1.75;;;1.00;;
35304;SDS011;26433;48.034;-1.764;2023-07-31T11:19:03;5.03;;;1.87;;
35304;SDS011;26433;48.034;-1.764;2023-07-31T11:24:13;3.08;;;1.60;;
35304;SDS011;26433;48.034;-1.764;2023-07-31T11:29:16;3.67;;;1.50;;
35304;SDS011;26433;48.034;-1.764;2023-07-31T11:34:20;7.95;;;2.08;;
35304;SDS011;26433;48.034;-1.764;2023-07-31T11:39:26;4.72;;;1.27;;
35304;SDS011;26433;48.034;-1.764;2023-07-31T11:44:37;3.30;;;1.17;;
35304;SDS011;26433;48.034;-1.764;2023-07-31T11:49:41;3.92;;;1.12;;
35304;SDS011;26433;48.034;-1.764;2023-07-31T11:54:46;1.73;;;0.95;;
35304;SDS011;26433;48.034;-1.764;2023-07-31T11:59:50;2.03;;;0.98;;
35304;SDS011;26433;48.034;-1.764;2023-07-31T12:04:54;4.20;;;1.62;;
35304;SDS011;26433;48.034;-1.764;2023-07-31T12:10:00;4.40;;;1.33;;
35304;SDS011;26433;48.034;-1.764;2023-07-31T12:15:13;3.20;;;1.33;;
35304;SDS011;26433;48.034;-1.764;2023-07-31T12:20:18;2.30;;;1.23;;
35304;SDS011;26433;48.034;-1.764;2023-07-31T12:25:29;2.37;;;1.10;;
35304;SDS011;26433;48.034;-1.764;2023-07-31T12:30:34;3.65;;;1.00;;
35304;SDS011;26433;48.034;-1.764;2023-07-31T12:35:39;2.17;;;0.70;;
35304;SDS011;26433;48.034;-1.764;2023-07-31T12:40:45;1.42;;;0.50;;
35304;SDS011;26433;48.034;-1.764;2023-07-31T12:45:49;1.30;;;0.60;;
35304;SDS011;26433;48.034;-1.764;2023-07-31T12:50:53;1.52;;;0.80;;
35304;SDS011;26433;48.034;-1.764;2023-07-31T12:55:58;0.77;;;0.55;;
35304;SDS011;26433;48.034;-1.764;2023-07-31T13:01:02;0.88;;;0.47;;
35304;SDS011;26433;48.034;-1.764;2023-07-31T13:06:07;0.70;;;0.57;;
35304;SDS011;26433;48.034;-1.764;2023-07-31T13:11:12;1.23;;;0.80;;
35304;SDS011;26433;48.034;-1.764;2023-07-31T13:16:16;0.80;;;0.45;;
35304;SDS011;26433;48.034;-1.764;2023-07-31T13:21:20;0.40;;;0.30;;
35304;SDS011;26433;48.034;-1.764;2023-07-31T13:26:25;0.55;;;0.40;;
35304;SDS011;26433;48.034;-1.764;2023-07-31T13:31:29;0.70;;;0.50;;
35304;SDS011;26433;48.034;-1.764;2023-07-31T13:36:33;0.77;;;0.50;;
35304;SDS011;26433;48.034;-1.764;2023-07-31T13:41:41;1.20;;;0.57;;
35304;SDS011;26433;48.034;-1.764;2023-07-31T13:46:44;1.67;;;0.50;;
35304;SDS011;26433;48.034;-1.764;2023-07-31T13:51:48;0.67;;;0.50;;
35304;SDS011;26433;48.034;-1.764;2023-07-31T13:56:53;2.15;;;0.50;;
35304;SDS011;26433;48.034;-1.764;2023-07-31T14:01:57;1.02;;;0.40;;
35304;SDS011;26433;48.034;-1.764;2023-07-31T14:07:01;1.55;;;0.30;;
35304;SDS011;26433;48.034;-1.764;2023-07-31T14:12:07;1.95;;;0.45;;
35304;SDS011;26433;48.034;-1.764;2023-07-31T14:17:11;1.23;;;0.60;;
35304;SDS011;26433;48.034;-1.764;2023-07-31T14:22:15;0.25;;;0.20;;
35304;SDS011;26433;48.034;-1.764;2023-07-31T14:27:31;0.40;;;0.40;;
35304;SDS011;26433;48.034;-1.764;2023-07-31T14:32:35;2.05;;;0.55;;
35304;SDS011;26433;48.034;-1.764;2023-07-31T14:37:39;0.30;;;0.30;;
35304;SDS011;26433;48.034;-1.764;2023-07-31T14:42:45;0.75;;;0.50;;
35304;SDS011;26433;48.034;-1.764;2023-07-31T14:47:49;1.80;;;0.77;;
35304;SDS011;26433;48.034;-1.764;2023-07-31T14:52:53;1.70;;;0.80;;
35304;SDS011;26433;48.034;-1.764;2023-07-31T14:57:58;2.12;;;0.88;;
35304;SDS011;26433;48.034;-1.764;2023-07-31T15:03:02;4.25;;;0.93;;
35304;SDS011;26433;48.034;-1.764;2023-07-31T15:08:06;4.03;;;1.12;;
35304;SDS011;26433;48.034;-1.764;2023-07-31T15:13:11;0.85;;;0.52;;
35304;SDS011;26433;48.034;-1.764;2023-07-31T15:18:15;1.45;;;0.70;;
35304;SDS011;26433;48.034;-1.764;2023-07-31T15:23:18;1.20;;;0.53;;
35304;SDS011;26433;48.034;-1.764;2023-07-31T15:28:24;1.33;;;0.55;;
35304;SDS011;26433;48.034;-1.764;2023-07-31T15:33:27;0.62;;;0.50;;
35304;SDS011;26433;48.034;-1.764;2023-07-31T15:38:31;0.85;;;0.40;;
35304;SDS011;26433;48.034;-1.764;2023-07-31T15:43:36;0.80;;;0.32;;
35304;SDS011;26433;48.034;-1.764;2023-07-31T15:48:40;0.70;;;0.50;;
35304;SDS011;26433;48.034;-1.764;2023-07-31T15:53:43;0.90;;;0.60;;
35304;SDS011;26433;48.034;-1.764;2023-07-31T15:58:49;2.10;;;1.00;;
35304;SDS011;26433;48.034;-1.764;2023-07-31T16:03:53;2.35;;;0.65;;
35304;SDS011;26433;48.034;-1.764;2023-07-31T16:08:56;1.33;;;0.73;;
35304;SDS011;26433;48.034;-1.764;2023-07-31T16:14:01;1.27;;;0.70;;
35304;SDS011;26433;48.034;-1.764;2023-07-31T16:19:05;3.90;;;0.80;;
35304;SDS011;26433;48.034;-1.764;2023-07-31T16:24:09;1.07;;;0.70;;
35304;SDS011;26433;48.034;-1.764;2023-07-31T16:29:14;2.93;;;1.43;;
35304;SDS011;26433;48.034;-1.764;2023-07-31T16:34:17;1.62;;;0.95;;
35304;SDS011;26433;48.034;-1.764;2023-07-31T16:39:21;4.00;;;1.00;;
35304;SDS011;26433;48.034;-1.764;2023-07-31T16:44:26;2.70;;;1.57;;
35304;SDS011;26433;48.034;-1.764;2023-07-31T16:49:30;5.97;;;1.92;;
35304;SDS011;26433;48.034;-1.764;2023-07-31T16:54:34;5.40;;;1.33;;
35304;SDS011;26433;48.034;-1.764;2023-07-31T16:59:39;5.62;;;1.55;;
35304;SDS011;26433;48.034;-1.764;2023-07-31T17:04:43;4.55;;;1.92;;
35304;SDS011;26433;48.034;-1.764;2023-07-31T17:09:46;4.53;;;1.30;;
35304;SDS011;26433;48.034;-1.764;2023-07-31T17:14:51;6.20;;;1.73;;
35304;SDS011;26433;48.034;-1.764;2023-07-31T17:19:55;6.37;;;1.12;;
35304;SDS011;26433;48.034;-1.764;2023-07-31T17:24:59;7.40;;;2.37;;
35304;SDS011;26433;48.034;-1.764;2023-07-31T17:30:04;4.12;;;1.52;;
35304;SDS011;26433;48.034;-1.764;2023-07-31T17:35:09;2.17;;;1.40;;
35304;SDS011;26433;48.034;-1.764;2023-07-31T17:40:12;1.83;;;1.37;;
35304;SDS011;26433;48.034;-1.764;2023-07-31T17:45:17;5.10;;;1.67;;
35304;SDS011;26433;48.034;-1.764;2023-07-31T17:50:23;6.10;;;1.73;;
35304;SDS011;26433;48.034;-1.764;2023-07-31T17:55:26;3.37;;;1.37;;
35304;SDS011;26433;48.034;-1.764;2023-07-31T18:00:32;3.10;;;1.50;;
35304;SDS011;26433;48.034;-1.764;2023-07-31T18:05:37;7.12;;;2.12;;
35304;SDS011;26433;48.034;-1.764;2023-07-31T18:10:43;4.77;;;1.60;;
35304;SDS011;26433;48.034;-1.764;2023-07-31T18:15:49;6.85;;;2.03;;
35304;SDS011;26433;48.034;-1.764;2023-07-31T18:20:52;3.65;;;1.50;;
35304;SDS011;26433;48.034;-1.764;2023-07-31T18:25:56;7.63;;;2.50;;
35304;SDS011;26433;48.034;-1.764;2023-07-31T18:31:01;3.33;;;1.42;;
35304;SDS011;26433;48.034;-1.764;2023-07-31T18:36:07;3.85;;;1.75;;
35304;SDS011;26433;48.034;-1.764;2023-07-31T18:41:11;9.43;;;2.90;;
35304;SDS011;26433;48.034;-1.764;2023-07-31T18:46:16;3.20;;;1.60;;
35304;SDS011;26433;48.034;-1.764;2023-07-31T18:51:20;6.60;;;2.42;;
35304;SDS011;26433;48.034;-1.764;2023-07-31T18:56:24;4.75;;;2.35;;
35304;SDS011;26433;48.034;-1.764;2023-07-31T19:06:33;6.80;;;2.05;;
35304;SDS011;26433;48.034;-1.764;2023-07-31T19:11:38;4.70;;;1.55;;
35304;SDS011;26433;48.034;-1.764;2023-07-31T19:16:45;6.07;;;1.50;;
35304;SDS011;26433;48.034;-1.764;2023-07-31T19:21:48;6.18;;;2.05;;
35304;SDS011;26433;48.034;-1.764;2023-07-31T19:26:52;4.00;;;1.15;;
35304;SDS011;26433;48.034;-1.764;2023-07-31T19:31:57;5.73;;;1.10;;
35304;SDS011;26433;48.034;-1.764;2023-07-31T19:37:01;2.67;;;1.10;;
35304;SDS011;26433;48.034;-1.764;2023-07-31T19:42:04;1.50;;;0.90;;
35304;SDS011;26433;48.034;-1.764;2023-07-31T19:47:09;5.20;;;1.00;;
35304;SDS011;26433;48.034;-1.764;2023-07-31T19:52:13;1.00;;;0.77;;
35304;SDS011;26433;48.034;-1.764;2023-07-31T19:57:16;1.07;;;0.77;;
35304;SDS011;26433;48.034;-1.764;2023-07-31T20:02:21;2.03;;;0.63;;
35304;SDS011;26433;48.034;-1.764;2023-07-31T20:07:27;0.45;;;0.45;;
35304;SDS011;26433;48.034;-1.764;2023-07-31T20:12:31;0.90;;;0.57;;
35304;SDS011;26433;48.034;-1.764;2023-07-31T20:17:36;2.17;;;0.83;;
35304;SDS011;26433;48.034;-1.764;2023-07-31T20:22:40;1.30;;;0.60;;
35304;SDS011;26433;48.034;-1.764;2023-07-31T20:27:44;2.40;;;1.03;;
35304;SDS011;26433;48.034;-1.764;2023-07-31T20:32:49;2.77;;;0.90;;
35304;SDS011;26433;48.034;-1.764;2023-07-31T20:37:52;1.48;;;0.57;;
35304;SDS011;26433;48.034;-1.764;2023-07-31T20:42:56;0.60;;;0.43;;
35304;SDS011;26433;48.034;-1.764;2023-07-31T20:48:02;2.53;;;0.62;;
35304;SDS011;26433;48.034;-1.764;2023-07-31T20:53:06;1.23;;;0.40;;
35304;SDS011;26433;48.034;-1.764;2023-07-31T20:58:10;0.47;;;0.33;;
35304;SDS011;26433;48.034;-1.764;2023-07-31T21:03:15;1.27;;;0.47;;
35304;SDS011;26433;48.034;-1.764;2023-07-31T21:08:19;1.02;;;0.32;;
35304;SDS011;26433;48.034;-1.764;2023-07-31T21:13:23;0.20;;;0.10;;
35304;SDS011;26433;48.034;-1.764;2023-07-31T21:18:28;0.62;;;0.30;;
35304;SDS011;26433;48.034;-1.764;2023-07-31T21:23:32;0.45;;;0.20;;
35304;SDS011;26433;48.034;-1.764;2023-07-31T21:28:36;1.00;;;0.22;;
35304;SDS011;26433;48.034;-1.764;2023-07-31T21:33:41;0.75;;;0.65;;
35304;SDS011;26433;48.034;-1.764;2023-07-31T21:38:45;0.35;;;0.20;;
35304;SDS011;26433;48.034;-1.764;2023-07-31T21:43:48;1.30;;;0.20;;
35304;SDS011;26433;48.034;-1.764;2023-07-31T21:48:54;0.20;;;0.20;;
35304;SDS011;26433;48.034;-1.764;2023-07-31T21:53:57;0.20;;;0.10;;
35304;SDS011;26433;48.034;-1.764;2023-07-31T21:59:01;0.97;;;0.10;;
35304;SDS011;26433;48.034;-1.764;2023-07-31T22:04:06;0.57;;;0.23;;
35304;SDS011;26433;48.034;-1.764;2023-07-31T22:09:09;0.20;;;0.20;;
35304;SDS011;26433;48.034;-1.764;2023-07-31T22:14:13;0.57;;;0.10;;
35304;SDS011;26433;48.034;-1.764;2023-07-31T22:19:18;1.17;;;0.57;;
35304;SDS011;26433;48.034;-1.764;2023-07-31T22:24:22;0.28;;;0.20;;
35304;SDS011;26433;48.034;-1.764;2023-07-31T22:29:26;0.30;;;0.20;;
35304;SDS011;26433;48.034;-1.764;2023-07-31T22:34:31;0.10;;;0.10;;
35304;SDS011;26433;48.034;-1.764;2023-07-31T22:39:35;0.32;;;0.20;;
35304;SDS011;26433;48.034;-1.764;2023-07-31T22:44:39;0.35;;;0.20;;
35304;SDS011;26433;48.034;-1.764;2023-07-31T22:49:44;0.50;;;0.20;;
35304;SDS011;26433;48.034;-1.764;2023-07-31T22:54:48;0.30;;;0.30;;
35304;SDS011;26433;48.034;-1.764;2023-07-31T22:59:52;0.37;;;0.17;;
35304;SDS011;26433;48.034;-1.764;2023-07-31T23:04:57;1.17;;;0.10;;
35304;SDS011;26433;48.034;-1.764;2023-07-31T23:10:01;0.20;;;0.20;;
35304;SDS011;26433;48.034;-1.764;2023-07-31T23:15:05;0.15;;;0.00;;
35304;SDS011;26433;48.034;-1.764;2023-07-31T23:20:11;0.80;;;0.05;;
35304;SDS011;26433;48.034;-1.764;2023-07-31T23:25:15;0.10;;;0.10;;
35304;SDS011;26433;48.034;-1.764;2023-07-31T23:30:18;0.13;;;0.10;;
35304;SDS011;26433;48.034;-1.764;2023-07-31T23:35:27;0.37;;;0.00;;
35304;SDS011;26433;48.034;-1.764;2023-07-31T23:40:31;0.00;;;0.00;;
35304;SDS011;26433;48.034;-1.764;2023-07-31T23:45:34;0.43;;;0.00;;
35304;SDS011;26433;48.034;-1.764;2023-07-31T23:50:40;0.10;;;0.10;;
35304;SDS011;26433;48.034;-1.764;2023-07-31T23:55:43;0.20;;;0.20;;
